Terminal Aerodrome Forecast
Issued by NWS Omaha/Valley, NE

Home | Current Version | Previous Version | Text Only | Print | Product List | Glossary Off
Versions: 1 2 3 4 5 6 7 8 9 10 11 12 13 14 15 16 17

000
FTUS43 KOAX 171120
TAFOFK
TAF
KOFK 171120Z 1712/1812 22005KT P6SM SKC
     FM171700 29009KT P6SM SKC
     FM172000 32013KT P6SM SKC
     FM180000 32008KT P6SM SKC=

USA.gov is the U.S. government's official web portal to all federal, state and local government web resources and services.